Time;durP1;ratioP1;P1;durP2;ratioP2;P2;SDS_P1;SDS_P2;PMS_P1;PMS_P2;Temp;Humidity;BMP_temperature;BMP_pressure;BME280_temperature;BME280_humidity;BME280_pressure;Samples;Min_cycle;Max_cycle;Signal;HPM_P1;HPM_P2
2022/01/22 00:00:50;;;;;;;25.52;5.10;;;6.30;99.90;;;;;;4956748;28;20043;-62
2022/01/22 00:03:16;;;;;;;24.48;4.97;;;6.20;99.90;;;;;;4933632;28;20089;-62
2022/01/22 00:05:42;;;;;;;24.42;5.22;;;6.30;99.90;;;;;;4951725;28;20047;-62
2022/01/22 00:08:08;;;;;;;25.80;5.10;;;6.30;99.90;;;;;;4957588;28;20581;-62
2022/01/22 00:10:34;;;;;;;23.17;5.60;;;6.30;99.90;;;;;;4954634;28;20054;-62
2022/01/22 00:15:30;;;;;;;26.42;5.60;;;6.30;99.90;;;;;;4959493;28;20051;-62
2022/01/22 00:17:57;;;;;;;20.73;4.70;;;6.30;99.90;;;;;;4940297;28;20043;-62
2022/01/22 00:20:25;;;;;;;17.48;5.38;;;6.30;99.90;;;;;;4957748;28;20038;-62
2022/01/22 00:22:52;;;;;;;20.80;4.85;;;6.30;99.90;;;;;;4960475;28;20492;-62
2022/01/22 00:25:20;;;;;;;24.38;5.25;;;6.30;99.90;;;;;;4924142;28;20053;-62
2022/01/22 00:27:48;;;;;;;18.55;4.45;;;6.30;99.90;;;;;;4961823;28;20078;-62
2022/01/22 00:30:19;;;;;;;18.80;4.85;;;6.30;99.90;;;;;;4964634;28;20050;-62
2022/01/22 00:32:45;;;;;;;23.80;5.15;;;6.30;99.90;;;;;;4978224;28;20092;-62
2022/01/22 00:35:12;;;;;;;23.85;4.18;;;6.30;99.90;;;;;;4975271;28;20537;-62
2022/01/22 00:37:40;;;;;;;18.20;4.30;;;6.30;99.90;;;;;;4918076;28;20053;-62
2022/01/22 00:40:09;;;;;;;23.92;4.53;;;6.30;99.90;;;;;;4971581;28;20047;-62
2022/01/22 00:42:36;;;;;;;16.38;4.07;;;6.30;99.90;;;;;;4961712;28;20043;-63
2022/01/22 00:45:02;;;;;;;17.70;4.53;;;6.30;99.90;;;;;;4940335;28;20082;-63
2022/01/22 00:47:28;;;;;;;15.93;3.78;;;6.30;99.90;;;;;;4935754;28;20074;-62
2022/01/22 00:49:55;;;;;;;15.95;4.43;;;6.30;99.90;;;;;;4915993;28;20051;-63
2022/01/22 00:52:21;;;;;;;19.92;4.20;;;6.40;99.90;;;;;;4970204;28;20051;-62
2022/01/22 00:54:47;;;;;;;27.48;5.45;;;6.40;99.90;;;;;;4975343;28;20052;-62
2022/01/22 00:57:14;;;;;;;22.13;4.63;;;6.40;99.90;;;;;;4935599;28;20502;-63
2022/01/22 00:59:40;;;;;;;21.33;4.25;;;6.40;99.90;;;;;;4955265;28;20043;-63
2022/01/22 01:02:06;;;;;;;23.70;5.07;;;6.40;99.90;;;;;;4966291;28;20125;-63
2022/01/22 01:04:35;;;;;;;27.27;5.93;;;6.40;99.90;;;;;;4960632;28;20058;-63
2022/01/22 01:07:02;;;;;;;23.48;4.82;;;6.40;99.90;;;;;;4956648;28;20506;-62
2022/01/22 01:09:28;;;;;;;28.80;5.25;;;6.40;99.90;;;;;;4942469;28;20485;-63
2022/01/22 01:11:59;;;;;;;23.98;5.90;;;6.40;99.90;;;;;;4950918;28;20051;-63
2022/01/22 01:14:35;;;;;;;22.27;5.15;;;6.40;99.90;;;;;;4966872;28;20657;-62
2022/01/22 01:35:48;;;;;;;15.18;3.78;;;6.50;99.90;;;;;;4955938;28;20108;-62
2022/01/22 01:38:18;;;;;;;24.63;4.95;;;6.50;99.90;;;;;;4928263;28;20100;-63
2022/01/22 01:40:51;;;;;;;24.63;5.10;;;6.40;99.90;;;;;;4956589;28;20081;-62
2022/01/22 01:43:26;;;;;;;17.85;4.18;;;6.40;99.90;;;;;;4953777;28;20134;-62
2022/01/22 01:46:12;;;;;;;18.02;4.43;;;6.40;99.90;;;;;;4960158;28;20379;-62
2022/01/22 01:48:42;;;;;;;24.55;4.63;;;6.50;99.90;;;;;;4924249;28;20054;-62
2022/01/22 01:51:08;;;;;;;25.73;4.72;;;6.50;99.90;;;;;;4970044;28;20051;-62
2022/01/22 01:59:08;;;;;;;21.25;4.82;;;6.50;99.90;;;;;;4939379;28;20054;-57
2022/01/22 02:01:35;;;;;;;21.85;4.95;;;6.60;99.90;;;;;;4954970;28;20053;-56
2022/01/22 02:04:01;;;;;;;18.92;5.25;;;6.50;99.90;;;;;;4942760;28;20478;-57
2022/01/22 02:06:29;;;;;;;18.08;4.80;;;6.60;99.90;;;;;;4921564;28;20081;-56
2022/01/22 02:08:55;;;;;;;18.50;5.07;;;6.50;99.90;;;;;;4950407;28;20094;-59
2022/01/22 02:11:27;;;;;;;21.52;5.32;;;6.60;99.90;;;;;;4949336;28;20051;-57
2022/01/22 02:25:32;;;;;;;15.57;4.45;;;6.60;99.90;;;;;;4949889;28;20090;-58
2022/01/22 02:28:00;;;;;;;16.90;4.40;;;6.60;99.90;;;;;;4969636;28;20307;-56
2022/01/22 02:30:33;;;;;;;20.02;4.47;;;6.60;99.90;;;;;;4929882;28;20574;-56
2022/01/22 02:33:38;;;;;;;17.05;3.90;;;6.60;99.90;;;;;;4949217;28;20042;-56
2022/01/22 02:39:00;;;;;;;17.23;4.00;;;6.60;99.90;;;;;;4949647;28;20047;-56
2022/01/22 02:41:27;;;;;;;14.25;3.53;;;6.60;99.90;;;;;;4950444;28;20056;-56
2022/01/22 02:43:56;;;;;;;10.38;3.33;;;6.60;99.90;;;;;;4938351;29;20511;-56
2022/01/22 02:46:25;;;;;;;12.05;2.83;;;6.60;99.90;;;;;;4927769;28;20095;-56
2022/01/22 02:48:54;;;;;;;16.70;3.60;;;6.60;99.90;;;;;;4936387;28;20129;-62
2022/01/22 02:51:26;;;;;;;18.08;3.47;;;6.60;99.90;;;;;;4975254;28;20054;-62
2022/01/22 02:53:57;;;;;;;13.60;2.83;;;6.70;99.90;;;;;;4932231;29;20489;-62
2022/01/22 02:56:24;;;;;;;15.07;3.25;;;6.70;99.90;;;;;;4937046;28;20333;-56
2022/01/22 02:58:51;;;;;;;11.63;3.53;;;6.60;99.90;;;;;;4929809;28;20508;-62
2022/01/22 03:01:20;;;;;;;15.40;3.17;;;6.60;99.90;;;;;;4938720;28;20507;-62
2022/01/22 03:03:46;;;;;;;14.13;2.80;;;6.60;99.90;;;;;;4944365;28;20039;-56
2022/01/22 03:06:12;;;;;;;14.38;4.07;;;6.60;99.90;;;;;;4932400;28;20592;-62
2022/01/22 03:08:41;;;;;;;11.32;2.95;;;6.60;99.90;;;;;;4939543;28;20059;-62
2022/01/22 03:11:17;;;;;;;9.90;3.10;;;6.60;99.90;;;;;;4946480;28;20059;-62
2022/01/22 03:21:15;;;;;;;13.82;3.20;;;6.60;99.90;;;;;;4941297;28;20593;-56
2022/01/22 03:29:17;;;;;;;10.15;3.22;;;6.60;99.90;;;;;;4936350;28;20130;-61
2022/01/22 03:31:43;;;;;;;14.48;3.15;;;6.60;99.90;;;;;;4944419;28;20058;-62
2022/01/22 03:34:10;;;;;;;12.25;2.97;;;6.60;99.90;;;;;;4969981;28;20066;-62
2022/01/22 03:36:36;;;;;;;9.73;2.45;;;6.60;99.90;;;;;;4928834;28;20101;-62
2022/01/22 03:39:07;;;;;;;13.68;2.80;;;6.60;99.90;;;;;;4965757;28;20047;-62
2022/01/22 03:41:39;;;;;;;10.38;2.53;;;6.60;99.90;;;;;;4930795;28;20369;-62
2022/01/22 03:44:06;;;;;;;7.85;2.55;;;6.60;99.90;;;;;;4918622;28;20507;-62
2022/01/22 03:46:33;;;;;;;9.40;2.33;;;6.60;99.90;;;;;;4934680;28;20105;-63
2022/01/22 03:48:59;;;;;;;12.50;3.10;;;6.60;99.90;;;;;;4934503;29;20122;-62
2022/01/22 03:51:25;;;;;;;11.32;2.75;;;6.60;99.90;;;;;;4915684;28;20039;-62
2022/01/22 03:53:51;;;;;;;12.02;3.05;;;6.60;99.90;;;;;;4943677;28;20495;-63
2022/01/22 03:56:18;;;;;;;11.50;3.00;;;6.60;99.90;;;;;;4938506;29;20058;-62
2022/01/22 03:59:03;;;;;;;10.98;2.50;;;6.60;99.90;;;;;;4971758;28;20055;-62
2022/01/22 04:04:42;;;;;;;9.13;2.72;;;6.60;99.90;;;;;;4957022;28;20105;-62
2022/01/22 04:09:41;;;;;;;6.43;2.50;;;6.60;99.90;;;;;;4946316;28;20008;-62
2022/01/22 04:12:10;;;;;;;10.65;2.63;;;6.60;99.90;;;;;;4947540;28;20055;-62
2022/01/22 04:14:45;;;;;;;13.77;3.22;;;6.60;99.90;;;;;;4937011;28;20047;-62
2022/01/22 04:25:30;;;;;;;13.38;3.15;;;6.60;99.90;;;;;;4927708;28;20051;-57
2022/01/22 04:27:57;;;;;;;14.15;2.88;;;6.60;99.90;;;;;;4932917;28;20059;-56
2022/01/22 04:30:25;;;;;;;12.98;3.13;;;6.60;99.90;;;;;;4945671;28;20051;-56
2022/01/22 04:32:51;;;;;;;12.48;2.30;;;6.50;99.90;;;;;;4962942;28;20047;-56
2022/01/22 04:35:19;;;;;;;13.27;3.30;;;6.50;99.90;;;;;;4946633;28;20050;-57
2022/01/22 04:37:49;;;;;;;10.27;2.75;;;6.50;99.90;;;;;;4939890;28;20090;-56
2022/01/22 04:40:15;;;;;;;8.75;2.65;;;6.50;99.90;;;;;;4955772;28;20538;-56
2022/01/22 04:42:43;;;;;;;14.45;2.55;;;6.50;99.90;;;;;;4923368;28;20060;-56
2022/01/22 04:55:48;;;;;;;9.65;2.35;;;6.50;99.90;;;;;;4929562;28;20047;-56
2022/01/22 04:58:15;;;;;;;8.85;2.35;;;6.50;99.90;;;;;;4938385;28;20044;-56
2022/01/22 05:00:45;;;;;;;11.80;3.30;;;6.50;99.90;;;;;;4935474;28;20078;-57
2022/01/22 05:03:34;;;;;;;6.95;2.40;;;6.50;99.90;;;;;;4965487;28;20074;-56
2022/01/22 05:06:16;;;;;;;14.15;2.80;;;6.50;99.90;;;;;;4937688;29;20051;-57
2022/01/22 05:08:57;;;;;;;9.38;2.75;;;6.50;99.90;;;;;;4973006;28;20104;-56
2022/01/22 05:11:31;;;;;;;7.88;2.28;;;6.50;99.90;;;;;;4967431;28;20043;-56
2022/01/22 05:13:58;;;;;;;9.45;2.47;;;6.50;99.90;;;;;;4933988;29;20083;-56
2022/01/22 05:16:24;;;;;;;11.32;2.85;;;6.50;99.90;;;;;;4906354;29;20048;-56
2022/01/22 05:18:57;;;;;;;13.38;3.10;;;6.50;99.90;;;;;;4921578;28;20086;-57
2022/01/22 05:21:26;;;;;;;8.57;2.67;;;6.50;99.90;;;;;;4958116;28;20125;-56
2022/01/22 05:23:55;;;;;;;13.38;2.75;;;6.50;99.90;;;;;;4952466;28;20775;-56
2022/01/22 05:26:46;;;;;;;12.88;2.13;;;6.50;99.90;;;;;;4966727;28;20486;-56
2022/01/22 05:37:48;;;;;;;8.27;2.88;;;6.50;99.90;;;;;;4950354;28;20186;-56
2022/01/22 05:40:14;;;;;;;7.80;2.20;;;6.50;99.90;;;;;;4936978;28;20106;-56
2022/01/22 05:42:40;;;;;;;11.98;2.90;;;6.50;99.90;;;;;;4968660;28;20056;-56
2022/01/22 05:45:07;;;;;;;6.65;2.33;;;6.50;99.90;;;;;;4938396;28;20410;-56
2022/01/22 05:47:35;;;;;;;7.32;2.20;;;6.50;99.90;;;;;;4935057;28;20051;-56
2022/01/22 05:50:37;;;;;;;8.82;2.25;;;6.50;99.90;;;;;;4932869;28;20048;-56
2022/01/22 05:53:15;;;;;;;8.95;2.47;;;6.50;99.90;;;;;;4952321;28;20397;-56
2022/01/22 06:01:34;;;;;;;9.32;2.80;;;6.50;99.90;;;;;;4959433;28;20061;-56
2022/01/22 06:04:11;;;;;;;9.98;2.47;;;6.50;99.90;;;;;;4935096;29;20058;-56
2022/01/22 06:06:38;;;;;;;7.88;2.55;;;6.50;99.90;;;;;;4948494;28;20055;-56
2022/01/22 06:09:09;;;;;;;8.93;2.70;;;6.50;99.90;;;;;;4978000;28;20058;-56
2022/01/22 06:11:53;;;;;;;7.72;3.03;;;6.50;99.90;;;;;;4931364;29;20134;-56
2022/01/22 06:14:20;;;;;;;9.98;2.92;;;6.50;99.90;;;;;;4915130;29;20444;-56
2022/01/22 06:16:48;;;;;;;11.07;2.42;;;6.50;99.90;;;;;;4940268;28;20163;-56
2022/01/22 06:19:34;;;;;;;9.40;3.63;;;6.50;99.90;;;;;;4940857;28;20090;-56
2022/01/22 06:22:01;;;;;;;12.32;3.28;;;6.50;99.90;;;;;;4944954;28;20402;-56
2022/01/22 06:24:29;;;;;;;10.40;3.10;;;6.50;99.90;;;;;;4940028;28;20550;-56
2022/01/22 06:26:55;;;;;;;11.98;3.50;;;6.50;99.90;;;;;;4930157;29;20131;-56
2022/01/22 06:29:21;;;;;;;15.88;3.58;;;6.50;99.90;;;;;;4941717;28;20422;-56
2022/01/22 06:31:48;;;;;;;17.10;4.20;;;6.50;99.90;;;;;;4937200;28;20054;-56
2022/01/22 06:34:15;;;;;;;12.75;3.10;;;6.40;99.90;;;;;;4926484;29;20047;-56
2022/01/22 06:36:42;;;;;;;15.88;2.88;;;6.50;99.90;;;;;;4942398;28;20098;-55
2022/01/22 06:39:12;;;;;;;15.70;3.03;;;6.50;99.90;;;;;;4929038;29;20055;-56
2022/01/22 06:41:57;;;;;;;17.35;3.75;;;6.50;99.90;;;;;;4930619;28;20059;-62
2022/01/22 06:44:26;;;;;;;11.18;3.20;;;6.50;99.90;;;;;;4936358;28;20046;-54
2022/01/22 06:47:12;;;;;;;10.98;3.28;;;6.50;99.90;;;;;;4942691;28;20059;-56
2022/01/22 06:49:57;;;;;;;10.75;3.15;;;6.50;99.90;;;;;;4951119;28;20559;-62
2022/01/22 06:52:42;;;;;;;15.70;3.15;;;6.40;99.90;;;;;;4972205;28;20104;-62
2022/01/22 06:55:19;;;;;;;11.77;3.15;;;6.40;99.90;;;;;;4929378;29;20051;-62
2022/01/22 06:57:45;;;;;;;10.88;3.10;;;6.40;99.90;;;;;;4934212;29;20048;-55
2022/01/22 07:00:19;;;;;;;11.50;3.63;;;6.40;99.90;;;;;;4942624;28;20359;-56
2022/01/22 07:02:58;;;;;;;15.15;3.58;;;6.40;99.90;;;;;;4966375;28;20062;-62
2022/01/22 07:05:25;;;;;;;14.38;3.72;;;6.40;99.90;;;;;;4994047;28;20113;-62
2022/01/22 07:08:11;;;;;;;14.50;3.72;;;6.40;99.90;;;;;;4980358;28;20049;-56
2022/01/22 07:10:41;;;;;;;12.63;4.07;;;6.40;99.90;;;;;;4956666;28;20130;-62
2022/01/22 07:13:08;;;;;;;10.73;4.15;;;6.40;99.90;;;;;;4932875;28;20040;-62
2022/01/22 07:15:35;;;;;;;8.82;3.60;;;6.40;99.90;;;;;;4931307;29;21323;-62
2022/01/22 07:18:12;;;;;;;11.55;4.30;;;6.50;99.90;;;;;;4936498;29;20449;-63
2022/01/22 07:20:43;;;;;;;7.50;3.65;;;6.40;99.90;;;;;;4927509;28;20401;-56
2022/01/22 07:23:20;;;;;;;6.23;3.43;;;6.50;99.90;;;;;;4952673;28;20051;-62
2022/01/22 07:25:59;;;;;;;6.97;3.50;;;6.40;99.90;;;;;;4984773;28;20303;-57
2022/01/22 07:28:55;;;;;;;9.40;3.00;;;6.50;99.90;;;;;;4948381;28;20088;-56
2022/01/22 07:31:23;;;;;;;7.10;3.03;;;6.40;99.90;;;;;;4938042;28;20051;-54
2022/01/22 07:33:50;;;;;;;6.00;3.13;;;6.40;99.90;;;;;;4936356;28;20036;-62
2022/01/22 07:36:18;;;;;;;15.80;9.15;;;6.40;99.90;;;;;;4952147;28;20118;-56
2022/01/22 07:38:45;;;;;;;5.65;2.65;;;6.40;99.90;;;;;;4969404;28;20052;-56
2022/01/22 07:41:12;;;;;;;7.60;3.03;;;6.40;99.90;;;;;;4961327;28;20558;-62
2022/01/22 07:43:45;;;;;;;8.95;3.00;;;6.40;99.90;;;;;;4961476;28;20050;-62
2022/01/22 07:46:28;;;;;;;7.38;2.67;;;6.40;99.90;;;;;;4963327;28;20631;-63
2022/01/22 07:48:59;;;;;;;6.50;2.35;;;6.30;99.90;;;;;;4924011;28;20055;-57
2022/01/22 07:51:42;;;;;;;6.28;2.20;;;6.30;99.90;;;;;;4941045;28;20055;-62
2022/01/22 07:54:09;;;;;;;7.40;2.58;;;6.30;99.90;;;;;;4935196;28;20066;-62
2022/01/22 07:56:35;;;;;;;8.70;3.08;;;6.30;99.90;;;;;;4945635;28;20079;-56
2022/01/22 07:59:02;;;;;;;8.57;2.88;;;6.40;99.90;;;;;;4913543;28;20054;-57
2022/01/22 08:01:33;;;;;;;8.02;2.90;;;6.40;99.90;;;;;;4935730;28;20386;-56
2022/01/22 08:04:23;;;;;;;12.77;3.35;;;6.40;99.90;;;;;;4951967;28;20134;-57
2022/01/22 08:06:57;;;;;;;10.50;3.17;;;6.40;99.90;;;;;;4995071;28;20067;-57
2022/01/22 08:09:46;;;;;;;8.07;2.95;;;6.40;99.90;;;;;;4906202;28;20470;-57
2022/01/22 08:12:32;;;;;;;6.35;3.30;;;6.30;99.90;;;;;;4897057;29;20043;-63
2022/01/22 08:15:07;;;;;;;6.78;2.80;;;6.40;99.90;;;;;;4936488;28;20055;-62
2022/01/22 08:17:33;;;;;;;6.53;2.80;;;6.40;99.90;;;;;;4936547;28;20058;-62
2022/01/22 08:19:59;;;;;;;7.05;2.88;;;6.40;99.90;;;;;;4965093;28;20055;-62
2022/01/22 08:22:44;;;;;;;6.13;2.15;;;6.40;99.90;;;;;;4940034;28;20083;-62
2022/01/22 08:25:31;;;;;;;7.18;2.90;;;6.40;99.90;;;;;;4935546;28;20070;-57
2022/01/22 08:30:36;;;;;;;8.60;2.63;;;6.40;99.90;;;;;;4935887;29;20517;-56
2022/01/22 08:35:54;;;;;;;7.93;2.65;;;6.40;99.90;;;;;;4939770;29;20089;-56
2022/01/22 08:38:25;;;;;;;9.00;2.35;;;6.50;99.90;;;;;;4965553;28;20115;-56
2022/01/22 08:40:52;;;;;;;11.10;3.05;;;6.40;99.90;;;;;;4924929;28;20051;-55
2022/01/22 08:43:19;;;;;;;10.73;3.50;;;6.50;99.90;;;;;;4952305;28;20126;-57
2022/01/22 08:45:49;;;;;;;9.52;3.70;;;6.50;99.90;;;;;;4960464;28;20079;-57
2022/01/22 08:48:17;;;;;;;6.60;2.40;;;6.60;99.90;;;;;;4955416;28;20102;-58
2022/01/22 08:50:45;;;;;;;10.05;3.00;;;6.50;99.90;;;;;;4934836;28;20051;-62
2022/01/22 08:53:11;;;;;;;6.82;2.58;;;6.60;99.90;;;;;;4967554;28;20073;-62
2022/01/22 08:55:38;;;;;;;7.68;2.40;;;6.50;99.90;;;;;;4958281;28;20134;-62
2022/01/22 08:58:05;;;;;;;7.53;2.47;;;6.50;99.90;;;;;;4961743;28;20195;-62
2022/01/22 09:00:40;;;;;;;8.93;2.67;;;6.50;99.90;;;;;;4947160;28;20073;-62
2022/01/22 09:03:13;;;;;;;7.82;3.38;;;6.50;99.90;;;;;;4918286;28;20047;-61
2022/01/22 09:06:04;;;;;;;5.88;2.63;;;6.50;99.90;;;;;;4955364;28;20756;-56
2022/01/22 09:08:30;;;;;;;9.57;2.80;;;6.50;99.90;;;;;;4971922;28;20112;-56
2022/01/22 09:11:20;;;;;;;8.07;2.70;;;6.50;99.90;;;;;;4922277;28;20146;-56
2022/01/22 09:13:59;;;;;;;8.40;3.30;;;6.50;99.90;;;;;;4942123;28;20489;-56
2022/01/22 09:16:29;;;;;;;9.95;2.97;;;6.50;99.90;;;;;;4950588;28;20054;-54
2022/01/22 09:19:01;;;;;;;10.27;3.42;;;6.50;99.90;;;;;;4983633;28;20078;-55
2022/01/22 09:21:27;;;;;;;12.93;3.53;;;6.50;99.90;;;;;;4957835;28;20493;-55
2022/01/22 09:23:53;;;;;;;11.32;3.42;;;6.60;99.90;;;;;;4935655;28;20124;-56
2022/01/22 09:26:20;;;;;;;11.68;4.07;;;6.60;99.90;;;;;;4952051;28;20437;-54
2022/01/22 09:28:47;;;;;;;15.23;4.78;;;6.50;99.90;;;;;;4922956;28;20505;-56
2022/01/22 09:31:14;;;;;;;12.45;4.97;;;6.50;99.90;;;;;;4974373;28;20093;-57
2022/01/22 09:33:43;;;;;;;8.88;3.67;;;6.60;99.90;;;;;;4938048;28;20089;-56
2022/01/22 09:36:18;;;;;;;10.75;3.78;;;6.60;99.90;;;;;;4978670;28;20054;-56
2022/01/22 09:39:11;;;;;;;16.83;4.85;;;6.60;99.90;;;;;;4959481;28;20050;-57
2022/01/22 09:41:53;;;;;;;11.02;4.28;;;6.60;99.90;;;;;;4938777;28;20061;-56
2022/01/22 09:44:45;;;;;;;11.90;4.28;;;6.60;99.90;;;;;;4958911;28;20105;-54
2022/01/22 09:47:30;;;;;;;11.27;4.25;;;6.70;99.90;;;;;;4959022;28;20146;-56
2022/01/22 09:50:04;;;;;;;16.80;4.30;;;6.70;99.90;;;;;;4952089;28;20042;-61
2022/01/22 09:53:00;;;;;;;13.10;4.28;;;6.70;99.90;;;;;;4928627;28;20052;-62
2022/01/22 09:55:52;;;;;;;;;;;6.70;99.90;;;;;;4938331;28;20688;-61
2022/01/22 09:58:18;;;;;;;13.77;4.18;;;6.70;99.90;;;;;;4942080;28;19922;-61
2022/01/22 10:01:26;;;;;;;9.27;4.13;;;6.80;99.90;;;;;;4974980;28;20043;-61
2022/01/22 10:03:56;;;;;;;9.38;4.30;;;6.80;99.90;;;;;;4977971;28;20052;-61
2022/01/22 10:06:31;;;;;;;14.23;4.22;;;6.80;99.90;;;;;;4955964;28;20055;-61
2022/01/22 10:09:26;;;;;;;13.38;4.88;;;6.90;99.90;;;;;;4958689;28;20051;-61
2022/01/22 10:12:14;;;;;;;15.93;4.78;;;6.90;99.90;;;;;;4958442;28;20090;-61
2022/01/22 10:15:11;;;;;;;12.35;4.80;;;6.90;99.90;;;;;;4971825;28;20058;-61
2022/01/22 10:17:44;;;;;;;14.18;4.40;;;6.90;99.90;;;;;;4963330;28;20043;-61
2022/01/22 10:20:28;;;;;;;16.70;4.53;;;7.00;99.90;;;;;;4975579;28;20044;-60
2022/01/22 10:23:16;;;;;;;15.38;4.78;;;7.00;99.90;;;;;;4923991;28;20051;-61
2022/01/22 10:25:47;;;;;;;12.15;4.88;;;6.90;99.90;;;;;;4970741;28;20571;-62
2022/01/22 10:28:22;;;;;;;16.50;4.60;;;6.90;99.90;;;;;;4948715;28;20050;-63
2022/01/22 10:30:58;;;;;;;11.90;4.05;;;6.90;99.90;;;;;;4953604;28;20058;-61
2022/01/22 10:33:38;;;;;;;14.98;4.97;;;7.00;99.90;;;;;;4943172;28;20058;-61
2022/01/22 10:36:23;;;;;;;13.68;5.25;;;7.00;99.90;;;;;;4946807;28;20078;-61
2022/01/22 10:39:26;;;;;;;9.90;3.97;;;7.00;99.90;;;;;;4957357;28;20075;-61
2022/01/22 10:41:53;;;;;;;17.65;4.43;;;7.00;99.90;;;;;;4963537;28;20059;-61
2022/01/22 10:44:46;;;;;;;10.45;4.13;;;7.00;99.90;;;;;;4961559;28;21004;-61
2022/01/22 10:47:22;;;;;;;15.10;4.38;;;7.00;99.90;;;;;;4959147;28;20116;-60
2022/01/22 10:49:48;;;;;;;17.10;4.95;;;7.10;99.90;;;;;;4949100;28;20124;-60
2022/01/22 10:52:14;;;;;;;14.52;4.28;;;7.10;99.90;;;;;;4959335;28;20054;-56
2022/01/22 10:54:41;;;;;;;15.13;4.47;;;7.10;99.90;;;;;;4929022;28;20378;-56
2022/01/22 10:57:25;;;;;;;14.15;3.72;;;7.10;99.90;;;;;;4946725;28;20211;-55
2022/01/22 10:59:55;;;;;;;19.77;4.65;;;7.10;99.90;;;;;;4942045;28;20576;-61
2022/01/22 11:02:36;;;;;;;14.05;3.80;;;7.10;99.90;;;;;;4976209;28;20418;-60
2022/01/22 11:05:04;;;;;;;15.57;4.43;;;7.20;99.90;;;;;;4964291;28;20466;-55
2022/01/22 11:07:30;;;;;;;13.13;3.75;;;7.20;99.90;;;;;;4960827;28;20101;-55
2022/01/22 11:09:57;;;;;;;14.05;3.63;;;7.20;99.90;;;;;;4962172;28;20072;-55
2022/01/22 11:12:23;;;;;;;16.02;3.75;;;7.20;99.90;;;;;;4946811;28;20055;-56
2022/01/22 11:14:49;;;;;;;16.48;3.97;;;7.20;99.90;;;;;;4965901;28;20094;-54
2022/01/22 11:17:15;;;;;;;19.83;3.70;;;7.30;99.90;;;;;;4958777;28;20047;-56
2022/01/22 11:19:45;;;;;;;14.13;3.78;;;7.30;99.90;;;;;;4975540;28;20074;-56
2022/01/22 11:22:14;;;;;;;11.07;3.47;;;7.20;99.90;;;;;;4974166;28;20267;-56
2022/01/22 11:24:51;;;;;;;14.55;4.05;;;7.20;99.90;;;;;;4929010;28;20046;-56
2022/01/22 11:27:21;;;;;;;13.40;3.65;;;7.20;99.90;;;;;;4960221;28;20054;-56
2022/01/22 11:30:16;;;;;;;10.35;3.53;;;7.20;99.90;;;;;;4960590;28;20055;-56
2022/01/22 11:32:44;;;;;;;14.88;3.83;;;7.20;99.90;;;;;;4961134;28;20145;-56
2022/01/22 11:35:12;;;;;;;13.10;3.88;;;7.20;99.90;;;;;;4946620;28;20053;-55
2022/01/22 11:37:43;;;;;;;13.73;3.58;;;7.20;99.90;;;;;;4963776;28;20510;-55
2022/01/22 11:40:20;;;;;;;16.00;4.30;;;7.20;99.90;;;;;;4959465;28;20043;-56
2022/01/22 11:43:09;;;;;;;11.05;3.63;;;7.20;99.90;;;;;;4944687;28;20386;-56
2022/01/22 11:45:41;;;;;;;7.55;3.70;;;7.20;99.90;;;;;;4946390;28;20489;-57
2022/01/22 11:48:26;;;;;;;18.42;4.22;;;7.20;99.90;;;;;;4944624;28;20053;-56
2022/01/22 11:51:12;;;;;;;19.85;5.45;;;7.20;99.90;;;;;;4968119;28;20057;-56
2022/01/22 11:53:38;;;;;;;17.80;5.13;;;7.20;99.90;;;;;;4976872;28;20046;-56
2022/01/22 11:56:07;;;;;;;16.83;5.28;;;7.10;99.90;;;;;;4962247;28;20638;-56
2022/01/22 11:58:57;;;;;;;8.48;5.10;;;7.10;99.90;;;;;;4953859;28;20061;-57
2022/01/22 12:01:38;;;;;;;15.70;5.55;;;7.10;99.90;;;;;;4961881;28;20069;-56
2022/01/22 12:04:06;;;;;;;15.00;5.55;;;7.20;99.90;;;;;;4964773;28;20053;-56
2022/01/22 12:06:32;;;;;;;14.30;5.80;;;7.20;99.90;;;;;;4965800;28;20051;-56
2022/01/22 12:09:12;;;;;;;15.30;5.95;;;7.10;99.90;;;;;;4937639;28;20318;-56
2022/01/22 12:14:50;;;;;;;21.88;6.97;;;7.10;99.90;;;;;;4962756;28;20657;-60
2022/01/22 12:23:31;;;;;;;15.68;6.95;;;7.10;99.90;;;;;;4981400;28;20418;-55
2022/01/22 12:25:59;;;;;;;18.20;7.07;;;7.20;99.90;;;;;;4943161;28;20093;-56
2022/01/22 12:28:38;;;;;;;14.02;8.07;;;7.20;99.90;;;;;;4961575;28;20454;-56
2022/01/22 12:31:10;;;;;;;18.35;8.02;;;7.10;99.90;;;;;;4942956;28;20054;-57
2022/01/22 12:33:39;;;;;;;21.98;8.02;;;7.10;99.90;;;;;;4960233;28;20081;-57
2022/01/22 12:36:08;;;;;;;17.48;7.80;;;7.10;99.90;;;;;;4944957;28;20457;-57
2022/01/22 12:41:14;;;;;;;16.42;7.95;;;7.10;99.90;;;;;;4931206;28;20416;-60
2022/01/22 12:43:43;;;;;;;13.10;7.00;;;7.10;99.90;;;;;;4955004;28;20047;-60
2022/01/22 12:46:09;;;;;;;17.92;7.78;;;7.20;99.90;;;;;;4945282;28;20050;-60
2022/01/22 12:48:40;;;;;;;18.65;7.07;;;7.20;99.90;;;;;;4961923;28;20539;-60
2022/01/22 12:51:09;;;;;;;17.20;7.07;;;7.20;99.90;;;;;;4966967;28;20183;-60
2022/01/22 12:53:38;;;;;;;20.42;7.03;;;7.10;99.90;;;;;;4939056;28;20074;-60
2022/01/22 12:58:41;;;;;;;19.42;6.53;;;7.20;99.90;;;;;;4964275;28;20070;-61
2022/01/22 13:01:12;;;;;;;19.38;6.28;;;7.20;99.90;;;;;;4959007;28;20488;-60
2022/01/22 13:03:45;;;;;;;20.13;6.20;;;7.30;99.90;;;;;;4967372;28;20051;-60
2022/01/22 13:06:11;;;;;;;19.60;6.53;;;7.30;99.90;;;;;;4958638;28;20054;-60
2022/01/22 13:09:04;;;;;;;;;;;7.30;99.90;;;;;;4956531;28;20054;-60
2022/01/22 13:11:45;;;;;;;18.88;5.60;;;7.40;99.90;;;;;;4950595;28;20342;-60
2022/01/22 13:14:13;;;;;;;20.42;5.28;;;7.40;99.90;;;;;;4965630;28;20043;-60
2022/01/22 13:16:48;;;;;;;14.40;5.03;;;7.40;99.90;;;;;;4963780;28;20418;-60
2022/01/22 13:19:14;;;;;;;12.25;4.18;;;7.30;99.90;;;;;;4935535;28;20050;-60
2022/01/22 13:21:52;;;;;;;10.35;4.80;;;7.40;99.90;;;;;;4929841;28;20086;-60
2022/01/22 13:24:25;;;;;;;12.98;4.53;;;7.40;99.90;;;;;;4957806;28;20043;-56
2022/01/22 13:27:10;;;;;;;16.30;4.68;;;7.30;99.90;;;;;;4942269;28;20477;-57
2022/01/22 13:29:39;;;;;;;11.40;4.18;;;7.40;99.90;;;;;;4938398;28;20082;-56
2022/01/22 13:32:13;;;;;;;12.65;4.10;;;7.30;99.90;;;;;;4964560;28;20057;-56
2022/01/22 13:41:04;;;;;;;10.15;3.65;;;7.30;99.90;;;;;;4938808;28;20608;-56
2022/01/22 13:49:19;;;;;;;16.80;3.92;;;7.20;99.90;;;;;;4968236;28;20379;-55
2022/01/22 13:51:45;;;;;;;10.05;4.15;;;7.20;99.90;;;;;;4967992;28;20047;-55
2022/01/22 13:54:13;;;;;;;15.57;4.07;;;7.20;99.90;;;;;;4952914;28;20536;-57
2022/01/22 13:56:43;;;;;;;15.68;3.85;;;7.20;99.90;;;;;;4949654;28;20476;-56
2022/01/22 13:59:18;;;;;;;12.98;3.53;;;7.20;99.90;;;;;;4970970;28;20596;-57
2022/01/22 14:02:07;;;;;;;9.30;3.70;;;7.20;99.90;;;;;;4971972;28;20501;-57
2022/01/22 14:04:45;;;;;;;11.93;3.45;;;7.20;99.90;;;;;;4948397;28;20520;-57
2022/01/22 14:07:22;;;;;;;13.05;3.80;;;7.20;99.90;;;;;;4951150;28;20103;-57
2022/01/22 14:10:04;;;;;;;10.52;3.97;;;7.10;99.90;;;;;;4934706;28;20086;-57
2022/01/22 14:12:54;;;;;;;11.60;3.47;;;7.10;99.90;;;;;;4964640;28;20051;-57
2022/01/22 14:15:28;;;;;;;19.85;3.83;;;7.10;99.90;;;;;;4970833;28;20116;-56
2022/01/22 14:18:13;;;;;;;14.25;3.55;;;7.10;99.90;;;;;;4956148;28;20039;-56
2022/01/22 14:20:49;;;;;;;7.82;3.38;;;7.10;99.90;;;;;;4968178;28;20062;-57
2022/01/22 14:23:16;;;;;;;11.35;3.88;;;7.10;99.90;;;;;;4970503;28;20043;-56
2022/01/22 14:26:04;;;;;;;7.93;3.53;;;7.10;99.90;;;;;;4967207;28;20050;-55
2022/01/22 14:28:55;;;;;;;8.20;2.97;;;7.10;99.90;;;;;;4958531;28;20440;-58
2022/01/22 14:31:51;;;;;;;11.98;3.40;;;7.00;99.90;;;;;;4939985;28;20089;-56
2022/01/22 14:34:31;;;;;;;10.82;3.30;;;7.00;99.90;;;;;;4964376;28;20078;-57
2022/01/22 14:36:57;;;;;;;12.63;3.65;;;7.00;99.90;;;;;;4939444;28;20505;-56
2022/01/22 14:44:37;;;;;;;17.90;3.70;;;7.00;99.90;;;;;;4948719;28;20382;-53
2022/01/22 14:47:12;;;;;;;16.45;4.18;;;6.90;99.90;;;;;;4967185;28;20046;-56
2022/01/22 14:49:44;;;;;;;13.02;4.88;;;6.90;99.90;;;;;;4969543;28;20043;-56
2022/01/22 14:52:12;;;;;;;14.35;3.85;;;7.00;99.90;;;;;;4970805;28;20615;-56
2022/01/22 14:54:44;;;;;;;10.20;3.95;;;7.00;99.90;;;;;;4973250;28;20473;-55
2022/01/22 14:57:12;;;;;;;11.32;3.78;;;6.90;99.90;;;;;;4966109;28;20051;-56
2022/01/22 14:59:40;;;;;;;11.10;2.90;;;6.90;99.90;;;;;;4952594;28;20047;-56
2022/01/22 15:02:08;;;;;;;16.15;3.50;;;6.90;99.90;;;;;;4970173;28;20076;-56
2022/01/22 15:04:36;;;;;;;9.43;4.90;;;7.00;99.90;;;;;;4927618;28;20049;-56
2022/01/22 15:07:06;;;;;;;11.65;5.68;;;6.90;99.90;;;;;;4961586;28;20058;-56
2022/01/22 15:09:32;;;;;;;11.40;4.75;;;6.90;99.90;;;;;;4963486;28;20387;-56
2022/01/22 15:12:02;;;;;;;12.27;5.15;;;6.90;99.90;;;;;;4962338;28;20403;-56
2022/01/22 15:14:29;;;;;;;11.85;4.30;;;6.90;99.90;;;;;;4974525;28;20509;-56
2022/01/22 15:19:36;;;;;;;10.90;4.60;;;6.90;99.90;;;;;;4965323;28;20049;-61
2022/01/22 15:22:04;;;;;;;10.70;4.07;;;6.90;99.90;;;;;;4964414;28;20070;-61
2022/01/22 15:24:30;;;;;;;12.00;4.05;;;6.90;99.90;;;;;;4952169;28;20097;-60
2022/01/22 15:26:56;;;;;;;12.65;4.47;;;6.90;99.90;;;;;;4936986;28;20042;-64
2022/01/22 15:29:26;;;;;;;10.10;3.20;;;6.80;99.90;;;;;;4971659;28;20058;-61
2022/01/22 15:37:05;;;;;;;12.15;4.13;;;6.80;99.90;;;;;;4937368;28;20058;-61